Carrollton, TX (75007)

3:46 AM CDT on August 23, 2017 (GMT -0500)
Josey and Rosemeade | | Change Station

Elev 542 ft 33.01 °N, 96.89 °W | Updated 4 seconds ago

Mostly Cloudy
Mostly Cloudy
75.6 °F
Feels Like 74 °F
N
0.9
Wind Variable Wind from East
Gusts 2.5 mph

Today
High -- | Low -- °F
--% Chance of Precip.
Yesterday
High -- | Low -- °F
Precip. -- in
Pressure 30.03 in
Visibility 10.0 miles
Clouds Scattered Clouds 7500 ft
Heat Index 74 °F
Dew Point 75 °F
Humidity 99%
Rainfall 0.00 in
Snow Depth Not available.
6:56 AM 8:03 PM
Waxing Crescent, 3% visible
METAR KADS 230835Z AUTO 01013G21KT 10SM SCT075 25/22 A3003 RMK AO2 LTG DSNT N T02450216
Pressure 30.03 in
Visibility 10.0 miles
Clouds Scattered Clouds 7500 ft
Heat Index 74 °F
Dew Point 75 °F
Humidity 99%
Rainfall 0.00 in
Snow Depth Not available.
6:56 AM 8:03 PM
Waxing Crescent, 3% visible
METAR KADS 230835Z AUTO 01013G21KT 10SM SCT075 25/22 A3003 RMK AO2 LTG DSNT N T02450216

Get Severe Weather Alerts

Thanks for signing up!

Be on the lookout for a verification email in your inbox.

You'll start receiving the daily forecast at 6 AM.

×

10-Day Weather Forecast

Almanac

Astronomy

Aug. 23, 2017 Rise Set
Actual Time
Civil Twilight
Nautical Twilight
Astronomical Twilight
Moon
Length of Visible Light
Length of Day
Tomorrow will be .
, % of the Moon is Illuminated

Today's Extremes

State Highs State Lows

Community

WunderPhotos

Category 6

Welcome to Category 6. This is the collective home for Weather Underground's featured writeups by Dr. Jeff Masters (right), Bob Henson (left), Chris Burt, and other regular contributors.

Nearby

Air Quality

  Air Quality AQ Index Pollutant
Not available.

Snow Depth

Station Depth Elevation

Earthquake Activity

City Distance Mag. Time & Date
Minimum magnitude displayed is 2.5.

Coastal Water Temperatures

Place Temperature

Stations

Nearby Weather Stations

Station Location Temp. Windchill Dew Point Humidity Wind Precip. Elev Updated Type
                   

Watches & Warnings

There are currently no watches in effect.